CDT,Max TemperatureF,Mean TemperatureF,Min TemperatureF,Max Dew PointF,MeanDew PointF,Min DewpointF,Max Humidity, Mean Humidity, Min Humidity, Max Sea Level PressureIn, Mean Sea Level PressureIn, Min Sea Level PressureIn, Max VisibilityMiles, Mean VisibilityMiles, Min VisibilityMiles, Max Wind SpeedMPH, Mean Wind SpeedMPH, Max Gust SpeedMPH,PrecipitationIn, CloudCover, Events, WindDirDegrees
2013-3-1,32,30,28,31,29,25,100,96,92,30.15,30.07,30.01,10,4,1,18,12,25,0.01,8,Rain-Snow,356
2013-3-2,32,27,22,26,24,16,92,81,69,30.21,30.16,30.12,10,7,2,18,14,23,T,7,Snow,338
2013-3-3,35,26,17,23,18,14,84,64,43,30.19,30.14,30.09,10,10,10,12,5,18,0.00,0,,329
2013-3-4,38,32,25,26,23,20,81,70,59,30.12,29.99,29.87,10,10,10,17,10,27,T,6,,119
2013-3-5,38,34,29,36,30,25,100,80,59,29.96,29.83,29.76,10,4,0,37,18,44,0.10,8,Fog-Rain-Snow,303
2013-3-6,31,29,27,28,26,24,92,85,78,30.34,30.18,29.94,10,8,2,30,18,37,T,8,Snow,320
2013-3-7,35,32,28,27,26,25,85,77,69,30.44,30.39,30.32,10,9,6,9,3,12,0.00,7,,11
2013-3-8,46,36,26,32,28,24,92,73,53,30.48,30.39,30.28,10,10,6,14,6,17,0.00,0,,120
2013-3-9,56,47,37,39,34,30,76,63,50,30.25,30.07,29.86,10,10,10,21,14,28,0.01,4,Rain,151
2013-3-10,61,55,49,52,45,36,100,77,54,29.85,29.75,29.64,10,10,4,24,14,33,0.16,6,Rain,174
2013-3-11,50,42,33,48,38,28,100,91,82,29.95,29.73,29.63,10,8,2,20,10,30,0.02,8,Rain,246
2013-3-12,44,36,28,34,26,23,85,69,53,30.14,30.04,29.95,10,10,4,28,15,39,0.01,5,Rain-Snow,277
2013-3-13,36,30,24,21,19,18,81,64,47,30.40,30.30,30.14,10,8,2,26,14,32,T,5,Snow,299
2013-3-14,40,31,22,30,24,19,89,71,52,30.40,30.29,30.14,10,10,10,20,8,24,0.00,4,,190
2013-3-15,57,44,31,43,36,30,92,74,55,30.12,29.90,29.67,10,9,5,17,7,23,0.00,1,,173
2013-3-16,57,45,33,47,36,30,100,84,67,30.07,29.87,29.60,10,6,0,22,13,26,T,7,Fog,348
2013-3-17,39,35,31,34,28,25,92,78,64,30.13,30.04,29.86,10,9,5,20,12,24,0.17,7,Rain,69
2013-3-18,41,35,28,38,35,23,100,87,73,29.96,29.74,29.64,10,7,1,24,12,30,0.04,7,Rain,285
2013-3-19,44,35,26,22,19,16,81,59,36,30.17,30.11,29.97,10,10,10,25,13,30,0.00,0,,272
2013-3-20,33,27,21,22,14,5,81,57,32,30.21,30.14,30.09,10,10,10,26,17,35,0.00,2,,298
2013-3-21,35,26,17,19,12,6,81,59,36,30.12,30.07,30.03,10,10,9,15,5,18,T,2,Snow,335
2013-3-22,42,31,19,25,20,15,92,65,38,30.09,30.05,30.01,10,10,9,10,3,14,0.00,3,,185
2013-3-23,52,43,34,28,26,20,75,53,31,30.07,29.99,29.88,10,10,10,20,8,24,0.00,4,,55
2013-3-24,37,34,30,32,30,26,100,82,64,29.90,29.66,29.48,10,2,0,29,20,35,0.41,8,Fog-Snow,31
2013-3-25,33,31,28,30,28,26,100,89,78,30.12,29.84,29.63,10,4,1,26,18,30,0.00,8,Snow,317
2013-3-26,36,33,29,28,27,24,92,81,69,30.32,30.24,30.13,10,10,10,16,10,20,0.00,6,,296
2013-3-27,40,34,27,26,24,21,85,67,48,30.39,30.35,30.32,10,10,10,13,6,15,0.00,2,,284
2013-3-28,49,37,24,32,26,21,92,71,49,30.40,30.35,30.30,10,9,2,8,2,12,0.00,0,,99
2013-3-29,56,46,36,38,33,29,82,60,38,30.31,30.26,30.21,10,10,10,10,5,13,0.00,5,,83
2013-3-30,55,46,37,46,39,31,79,67,54,30.23,30.07,29.91,10,10,7,16,7,22,0.01,2,Rain,174
2013-3-31,60,50,39,46,44,34,100,77,53,29.92,29.86,29.82,10,7,2,21,9,32,T,6,,276